sensor_id;sensor_type;location;lat;lon;timestamp;pressure;altitude;pressure_sealevel;temperature;humidity
63321;BME280;49449;48.800;9.534;2023-11-19T00:00:08;98506.09;;;8.34;48.29
63321;BME280;49449;48.800;9.534;2023-11-19T00:02:38;98498.59;;;8.38;48.18
63321;BME280;49449;48.800;9.534;2023-11-19T00:05:08;98495.97;;;8.38;48.37
63321;BME280;49449;48.800;9.534;2023-11-19T00:07:38;98510.53;;;8.41;48.33
63321;BME280;49449;48.800;9.534;2023-11-19T00:10:08;98505.66;;;8.44;48.33
63321;BME280;49449;48.800;9.534;2023-11-19T00:12:37;98512.56;;;8.39;48.42
63321;BME280;49449;48.800;9.534;2023-11-19T00:15:06;98502.03;;;8.39;48.60
63321;BME280;49449;48.800;9.534;2023-11-19T00:17:37;98505.03;;;8.42;48.50
63321;BME280;49449;48.800;9.534;2023-11-19T00:20:09;98494.88;;;8.46;48.51
63321;BME280;49449;48.800;9.534;2023-11-19T00:22:37;98492.88;;;8.48;48.56
63321;BME280;49449;48.800;9.534;2023-11-19T00:25:14;98483.72;;;8.50;48.60
63321;BME280;49449;48.800;9.534;2023-11-19T00:27:42;98480.66;;;8.53;48.59
63321;BME280;49449;48.800;9.534;2023-11-19T00:30:11;98458.56;;;8.54;48.52
63321;BME280;49449;48.800;9.534;2023-11-19T00:32:40;98469.31;;;8.53;48.71
63321;BME280;49449;48.800;9.534;2023-11-19T00:35:11;98474.34;;;8.54;48.73
63321;BME280;49449;48.800;9.534;2023-11-19T00:37:40;98455.13;;;8.54;48.71
63321;BME280;49449;48.800;9.534;2023-11-19T00:40:10;98451.28;;;8.57;48.97
63321;BME280;49449;48.800;9.534;2023-11-19T00:42:37;98460.56;;;8.59;48.83
63321;BME280;49449;48.800;9.534;2023-11-19T00:45:06;98463.75;;;8.61;48.91
63321;BME280;49449;48.800;9.534;2023-11-19T00:47:36;98451.63;;;8.60;48.96
63321;BME280;49449;48.800;9.534;2023-11-19T00:50:05;98451.84;;;8.59;48.92
63321;BME280;49449;48.800;9.534;2023-11-19T00:52:37;98467.78;;;8.39;50.25
63321;BME280;49449;48.800;9.534;2023-11-19T00:55:06;98454.59;;;8.45;50.05
63321;BME280;49449;48.800;9.534;2023-11-19T00:57:34;98449.47;;;8.50;49.93
63321;BME280;49449;48.800;9.534;2023-11-19T01:00:02;98446.59;;;8.59;49.86
63321;BME280;49449;48.800;9.534;2023-11-19T01:02:35;98452.81;;;8.64;49.99
63321;BME280;49449;48.800;9.534;2023-11-19T01:05:03;98445.13;;;8.63;49.82
63321;BME280;49449;48.800;9.534;2023-11-19T01:07:31;98450.53;;;8.68;49.92
63321;BME280;49449;48.800;9.534;2023-11-19T01:10:01;98444.63;;;8.72;50.01
63321;BME280;49449;48.800;9.534;2023-11-19T01:12:29;98441.56;;;8.76;49.75
63321;BME280;49449;48.800;9.534;2023-11-19T01:14:57;98433.25;;;8.79;49.56
63321;BME280;49449;48.800;9.534;2023-11-19T01:17:25;98440.50;;;8.83;49.66
63321;BME280;49449;48.800;9.534;2023-11-19T01:19:53;98436.84;;;8.84;49.87
63321;BME280;49449;48.800;9.534;2023-11-19T01:22:21;98439.47;;;8.84;49.72
63321;BME280;49449;48.800;9.534;2023-11-19T01:24:49;98440.94;;;8.80;49.94
63321;BME280;49449;48.800;9.534;2023-11-19T01:27:20;98439.94;;;8.81;50.02
63321;BME280;49449;48.800;9.534;2023-11-19T01:29:47;98436.47;;;8.81;50.16
63321;BME280;49449;48.800;9.534;2023-11-19T01:32:15;98433.25;;;8.79;50.15
63321;BME280;49449;48.800;9.534;2023-11-19T01:34:43;98423.88;;;8.83;50.24
63321;BME280;49449;48.800;9.534;2023-11-19T01:37:11;98427.69;;;8.87;50.12
63321;BME280;49449;48.800;9.534;2023-11-19T01:39:43;98419.34;;;8.90;50.05
63321;BME280;49449;48.800;9.534;2023-11-19T01:42:11;98426.00;;;8.92;49.90
63321;BME280;49449;48.800;9.534;2023-11-19T01:44:41;98415.03;;;8.96;49.96
63321;BME280;49449;48.800;9.534;2023-11-19T01:47:09;98411.38;;;8.97;49.97
63321;BME280;49449;48.800;9.534;2023-11-19T01:49:37;98399.59;;;8.99;49.88
63321;BME280;49449;48.800;9.534;2023-11-19T01:52:05;98407.03;;;9.02;49.78
63321;BME280;49449;48.800;9.534;2023-11-19T01:54:33;98414.16;;;9.02;49.96
63321;BME280;49449;48.800;9.534;2023-11-19T01:57:01;98407.03;;;9.02;49.99
63321;BME280;49449;48.800;9.534;2023-11-19T01:59:28;98402.59;;;9.03;50.25
63321;BME280;49449;48.800;9.534;2023-11-19T02:01:57;98409.94;;;9.01;50.13
63321;BME280;49449;48.800;9.534;2023-11-19T02:04:26;98408.66;;;9.03;50.04
63321;BME280;49449;48.800;9.534;2023-11-19T02:06:56;98414.31;;;9.07;50.19
63321;BME280;49449;48.800;9.534;2023-11-19T02:09:25;98406.19;;;9.08;50.05
63321;BME280;49449;48.800;9.534;2023-11-19T02:11:54;98413.88;;;9.10;50.21
63321;BME280;49449;48.800;9.534;2023-11-19T02:14:25;98406.97;;;9.09;50.08
63321;BME280;49449;48.800;9.534;2023-11-19T02:16:53;98409.38;;;9.10;50.03
63321;BME280;49449;48.800;9.534;2023-11-19T02:19:22;98400.47;;;9.11;50.20
63321;BME280;49449;48.800;9.534;2023-11-19T02:21:50;98403.91;;;9.12;50.18
63321;BME280;49449;48.800;9.534;2023-11-19T02:24:21;98400.47;;;9.11;50.42
63321;BME280;49449;48.800;9.534;2023-11-19T02:26:57;98399.88;;;9.09;50.56
63321;BME280;49449;48.800;9.534;2023-11-19T02:29:28;98395.78;;;9.14;50.17
63321;BME280;49449;48.800;9.534;2023-11-19T02:31:56;98398.19;;;9.15;50.32
63321;BME280;49449;48.800;9.534;2023-11-19T02:34:23;98392.72;;;9.17;50.20
63321;BME280;49449;48.800;9.534;2023-11-19T02:36:52;98392.09;;;9.15;50.47
63321;BME280;49449;48.800;9.534;2023-11-19T02:39:20;98382.38;;;9.15;50.43
63321;BME280;49449;48.800;9.534;2023-11-19T02:41:48;98387.66;;;9.15;50.50
63321;BME280;49449;48.800;9.534;2023-11-19T02:44:17;98389.03;;;9.18;50.41
63321;BME280;49449;48.800;9.534;2023-11-19T02:46:46;98387.44;;;9.17;50.51
63321;BME280;49449;48.800;9.534;2023-11-19T02:49:14;98391.66;;;9.18;50.44
63321;BME280;49449;48.800;9.534;2023-11-19T02:51:42;98394.66;;;9.21;50.40
63321;BME280;49449;48.800;9.534;2023-11-19T02:54:10;98393.66;;;9.22;50.36
63321;BME280;49449;48.800;9.534;2023-11-19T02:56:42;98397.06;;;9.23;50.46
63321;BME280;49449;48.800;9.534;2023-11-19T02:59:10;98396.50;;;9.21;50.49
63321;BME280;49449;48.800;9.534;2023-11-19T03:01:54;98391.31;;;9.14;50.92
63321;BME280;49449;48.800;9.534;2023-11-19T03:04:22;98404.91;;;9.11;50.90
63321;BME280;49449;48.800;9.534;2023-11-19T03:06:50;98395.13;;;9.00;51.30
63321;BME280;49449;48.800;9.534;2023-11-19T03:09:19;98386.34;;;8.87;51.63
63321;BME280;49449;48.800;9.534;2023-11-19T03:11:47;98386.50;;;8.92;51.50
63321;BME280;49449;48.800;9.534;2023-11-19T03:14:16;98401.66;;;8.97;51.24
63321;BME280;49449;48.800;9.534;2023-11-19T03:16:45;98397.19;;;8.98;51.59
63321;BME280;49449;48.800;9.534;2023-11-19T03:19:17;98391.84;;;8.86;51.69
63321;BME280;49449;48.800;9.534;2023-11-19T03:21:47;98398.72;;;8.87;51.59
63321;BME280;49449;48.800;9.534;2023-11-19T03:24:15;98397.63;;;8.95;51.55
63321;BME280;49449;48.800;9.534;2023-11-19T03:26:48;98396.97;;;8.99;51.50
63321;BME280;49449;48.800;9.534;2023-11-19T03:29:16;98402.38;;;9.04;51.33
63321;BME280;49449;48.800;9.534;2023-11-19T03:31:44;98396.28;;;9.04;51.37
63321;BME280;49449;48.800;9.534;2023-11-19T03:34:12;98411.22;;;8.91;51.85
63321;BME280;49449;48.800;9.534;2023-11-19T03:36:41;98414.31;;;8.88;52.00
63321;BME280;49449;48.800;9.534;2023-11-19T03:39:09;98405.53;;;8.95;51.69
63321;BME280;49449;48.800;9.534;2023-11-19T03:41:37;98403.41;;;9.03;51.79
63321;BME280;49449;48.800;9.534;2023-11-19T03:44:07;98392.84;;;9.03;51.65
63321;BME280;49449;48.800;9.534;2023-11-19T03:46:35;98399.13;;;9.02;51.69
63321;BME280;49449;48.800;9.534;2023-11-19T03:49:03;98381.72;;;9.01;51.93
63321;BME280;49449;48.800;9.534;2023-11-19T03:51:33;98376.69;;;9.00;51.86
63321;BME280;49449;48.800;9.534;2023-11-19T03:54:03;98374.97;;;9.05;51.57
63321;BME280;49449;48.800;9.534;2023-11-19T03:56:31;98377.53;;;9.12;51.43
63321;BME280;49449;48.800;9.534;2023-11-19T03:58:59;98370.56;;;9.18;51.44
63321;BME280;49449;48.800;9.534;2023-11-19T04:01:27;98370.56;;;9.18;51.54
63321;BME280;49449;48.800;9.534;2023-11-19T04:03:55;98366.94;;;9.19;51.40
63321;BME280;49449;48.800;9.534;2023-11-19T04:06:23;98356.59;;;9.17;51.72
63321;BME280;49449;48.800;9.534;2023-11-19T04:08:51;98350.53;;;9.17;51.79
63321;BME280;49449;48.800;9.534;2023-11-19T04:11:20;98349.13;;;9.14;51.80
63321;BME280;49449;48.800;9.534;2023-11-19T04:13:47;98339.09;;;9.23;51.82
63321;BME280;49449;48.800;9.534;2023-11-19T04:16:15;98342.66;;;9.28;51.67
63321;BME280;49449;48.800;9.534;2023-11-19T04:18:43;98339.78;;;9.30;51.68
63321;BME280;49449;48.800;9.534;2023-11-19T04:21:11;98341.19;;;9.33;51.35
63321;BME280;49449;48.800;9.534;2023-11-19T04:23:39;98344.63;;;9.33;51.64
63321;BME280;49449;48.800;9.534;2023-11-19T04:26:06;98350.03;;;9.38;51.48
63321;BME280;49449;48.800;9.534;2023-11-19T04:28:37;98339.63;;;9.43;51.35
63321;BME280;49449;48.800;9.534;2023-11-19T04:31:05;98350.75;;;9.45;51.25
63321;BME280;49449;48.800;9.534;2023-11-19T04:33:33;98342.03;;;9.45;51.33
63321;BME280;49449;48.800;9.534;2023-11-19T04:36:00;98342.03;;;9.45;51.69
63321;BME280;49449;48.800;9.534;2023-11-19T04:38:29;98342.25;;;9.43;51.28
63321;BME280;49449;48.800;9.534;2023-11-19T04:40:57;98336.06;;;9.49;51.31
63321;BME280;49449;48.800;9.534;2023-11-19T04:43:24;98330.34;;;9.53;51.19
63321;BME280;49449;48.800;9.534;2023-11-19T04:45:53;98333.56;;;9.55;51.12
63321;BME280;49449;48.800;9.534;2023-11-19T04:48:21;98337.34;;;9.59;51.20
63321;BME280;49449;48.800;9.534;2023-11-19T04:50:49;98340.59;;;9.61;50.74
63321;BME280;49449;48.800;9.534;2023-11-19T04:53:19;98332.69;;;9.61;50.97
63321;BME280;49449;48.800;9.534;2023-11-19T04:55:46;98341.38;;;9.61;50.94
63321;BME280;49449;48.800;9.534;2023-11-19T04:58:14;98342.28;;;9.55;51.40
63321;BME280;49449;48.800;9.534;2023-11-19T05:00:42;98348.59;;;9.54;51.53
63321;BME280;49449;48.800;9.534;2023-11-19T05:03:11;98346.19;;;9.53;51.81
63321;BME280;49449;48.800;9.534;2023-11-19T05:05:39;98353.66;;;9.56;51.60
63321;BME280;49449;48.800;9.534;2023-11-19T05:08:06;98349.25;;;9.49;51.93
63321;BME280;49449;48.800;9.534;2023-11-19T05:10:34;98353.53;;;9.51;51.83
63321;BME280;49449;48.800;9.534;2023-11-19T05:13:03;98342.06;;;9.57;51.48
63321;BME280;49449;48.800;9.534;2023-11-19T05:15:31;98327.41;;;9.61;51.44
63321;BME280;49449;48.800;9.534;2023-11-19T05:17:59;98327.19;;;9.62;51.52
63321;BME280;49449;48.800;9.534;2023-11-19T05:20:28;98338.09;;;9.66;51.30
63321;BME280;49449;48.800;9.534;2023-11-19T05:22:56;98336.91;;;9.62;51.77
63321;BME280;49449;48.800;9.534;2023-11-19T05:25:26;98342.31;;;9.67;52.04
63321;BME280;49449;48.800;9.534;2023-11-19T05:27:54;98341.34;;;9.49;52.72
63321;BME280;49449;48.800;9.534;2023-11-19T05:30:22;98341.03;;;9.58;52.87
63321;BME280;49449;48.800;9.534;2023-11-19T05:32:50;98336.66;;;9.52;53.27
63321;BME280;49449;48.800;9.534;2023-11-19T05:35:18;98337.72;;;9.62;52.76
63321;BME280;49449;48.800;9.534;2023-11-19T05:37:47;98332.56;;;9.56;53.12
63321;BME280;49449;48.800;9.534;2023-11-19T05:40:16;98331.16;;;9.41;54.06
63321;BME280;49449;48.800;9.534;2023-11-19T05:42:45;98328.66;;;9.58;53.37
63321;BME280;49449;48.800;9.534;2023-11-19T05:45:13;98333.03;;;9.64;53.12
63321;BME280;49449;48.800;9.534;2023-11-19T05:47:41;98343.22;;;9.61;53.36
63321;BME280;49449;48.800;9.534;2023-11-19T05:50:10;98342.88;;;9.69;53.24
63321;BME280;49449;48.800;9.534;2023-11-19T05:52:38;98335.41;;;9.54;53.49
63321;BME280;49449;48.800;9.534;2023-11-19T05:55:07;98337.25;;;9.65;53.42
63321;BME280;49449;48.800;9.534;2023-11-19T05:57:36;98343.72;;;9.70;53.33
63321;BME280;49449;48.800;9.534;2023-11-19T06:00:08;98353.97;;;9.47;54.07
63321;BME280;49449;48.800;9.534;2023-11-19T06:02:37;98345.00;;;9.37;54.54
63321;BME280;49449;48.800;9.534;2023-11-19T06:05:05;98347.34;;;9.26;55.17
63321;BME280;49449;48.800;9.534;2023-11-19T06:07:33;98341.09;;;9.39;54.67
63321;BME280;49449;48.800;9.534;2023-11-19T06:10:02;98332.28;;;8.85;56.45
63321;BME280;49449;48.800;9.534;2023-11-19T06:12:33;98331.59;;;8.89;56.29
63321;BME280;49449;48.800;9.534;2023-11-19T06:15:05;98325.81;;;8.99;56.09
63321;BME280;49449;48.800;9.534;2023-11-19T06:17:35;98326.72;;;8.75;56.92
63321;BME280;49449;48.800;9.534;2023-11-19T06:20:04;98322.03;;;8.77;56.91
63321;BME280;49449;48.800;9.534;2023-11-19T06:22:32;98312.78;;;8.49;57.85
63321;BME280;49449;48.800;9.534;2023-11-19T06:24:59;98318.84;;;8.31;58.50
63321;BME280;49449;48.800;9.534;2023-11-19T06:27:27;98322.81;;;8.59;57.63
63321;BME280;49449;48.800;9.534;2023-11-19T06:29:56;98332.09;;;8.61;57.51
63321;BME280;49449;48.800;9.534;2023-11-19T06:32:24;98323.53;;;8.66;57.34
63321;BME280;49449;48.800;9.534;2023-11-19T06:34:52;98332.72;;;8.82;56.94
63321;BME280;49449;48.800;9.534;2023-11-19T06:37:20;98340.00;;;8.61;57.45
63321;BME280;49449;48.800;9.534;2023-11-19T06:39:48;98320.13;;;9.14;56.05
63321;BME280;49449;48.800;9.534;2023-11-19T06:42:16;98331.84;;;9.18;55.93
63321;BME280;49449;48.800;9.534;2023-11-19T06:44:44;98331.44;;;9.03;56.33
63321;BME280;49449;48.800;9.534;2023-11-19T06:47:13;98343.00;;;9.02;56.51
63321;BME280;49449;48.800;9.534;2023-11-19T06:49:43;98341.41;;;8.64;57.61
63321;BME280;49449;48.800;9.534;2023-11-19T06:52:11;98344.59;;;8.47;58.35
63321;BME280;49449;48.800;9.534;2023-11-19T06:54:39;98354.25;;;8.53;58.34
63321;BME280;49449;48.800;9.534;2023-11-19T06:57:07;98361.38;;;9.08;56.65
63321;BME280;49449;48.800;9.534;2023-11-19T06:59:35;98344.84;;;8.83;57.45
63321;BME280;49449;48.800;9.534;2023-11-19T07:02:03;98374.38;;;8.66;58.22
63321;BME280;49449;48.800;9.534;2023-11-19T07:04:32;98367.78;;;9.13;56.90
63321;BME280;49449;48.800;9.534;2023-11-19T07:07:00;98371.00;;;9.15;57.05
63321;BME280;49449;48.800;9.534;2023-11-19T07:09:28;98365.16;;;9.13;57.09
63321;BME280;49449;48.800;9.534;2023-11-19T07:11:56;98360.44;;;9.03;57.48
63321;BME280;49449;48.800;9.534;2023-11-19T07:14:23;98359.97;;;8.50;58.51
63321;BME280;49449;48.800;9.534;2023-11-19T07:16:51;98368.81;;;8.38;59.49
63321;BME280;49449;48.800;9.534;2023-11-19T07:19:20;98383.69;;;8.00;60.28
63321;BME280;49449;48.800;9.534;2023-11-19T07:21:49;98391.06;;;8.60;58.74
63321;BME280;49449;48.800;9.534;2023-11-19T07:24:17;98374.00;;;8.63;58.62
63321;BME280;49449;48.800;9.534;2023-11-19T07:26:46;98383.16;;;8.16;60.14
63321;BME280;49449;48.800;9.534;2023-11-19T07:29:14;98385.56;;;8.18;60.01
63321;BME280;49449;48.800;9.534;2023-11-19T07:31:53;98381.50;;;7.97;60.70
63321;BME280;49449;48.800;9.534;2023-11-19T07:34:22;98390.09;;;8.11;60.61
63321;BME280;49449;48.800;9.534;2023-11-19T07:36:51;98389.53;;;8.27;60.03
63321;BME280;49449;48.800;9.534;2023-11-19T07:39:19;98388.09;;;8.06;60.56
63321;BME280;49449;48.800;9.534;2023-11-19T07:41:47;98384.91;;;8.48;59.53
63321;BME280;49449;48.800;9.534;2023-11-19T07:44:15;98393.28;;;9.00;57.89
63321;BME280;49449;48.800;9.534;2023-11-19T07:46:43;98408.69;;;9.34;56.51
63321;BME280;49449;48.800;9.534;2023-11-19T07:49:11;98387.03;;;9.62;55.68
63321;BME280;49449;48.800;9.534;2023-11-19T07:51:39;98403.25;;;9.77;55.59
63321;BME280;49449;48.800;9.534;2023-11-19T07:54:08;98407.00;;;10.00;54.61
63321;BME280;49449;48.800;9.534;2023-11-19T07:56:36;98403.66;;;9.93;54.86
63321;BME280;49449;48.800;9.534;2023-11-19T07:59:03;98408.28;;;10.09;54.09
63321;BME280;49449;48.800;9.534;2023-11-19T08:01:31;98418.13;;;10.02;54.34
63321;BME280;49449;48.800;9.534;2023-11-19T08:03:59;98413.34;;;10.11;54.01
63321;BME280;49449;48.800;9.534;2023-11-19T08:06:28;98416.00;;;9.80;55.08
63321;BME280;49449;48.800;9.534;2023-11-19T08:08:56;98406.19;;;9.69;55.66
63321;BME280;49449;48.800;9.534;2023-11-19T08:11:25;98407.69;;;9.65;55.90
63321;BME280;49449;48.800;9.534;2023-11-19T08:13:52;98393.69;;;9.64;55.96
63321;BME280;49449;48.800;9.534;2023-11-19T08:16:20;98403.50;;;9.45;56.51
63321;BME280;49449;48.800;9.534;2023-11-19T08:18:48;98398.50;;;9.56;56.48
63321;BME280;49449;48.800;9.534;2023-11-19T08:21:16;98404.34;;;9.58;56.10
63321;BME280;49449;48.800;9.534;2023-11-19T08:23:43;98392.63;;;9.84;55.59
63321;BME280;49449;48.800;9.534;2023-11-19T08:26:11;98384.25;;;9.57;56.20
63321;BME280;49449;48.800;9.534;2023-11-19T08:28:40;98387.09;;;9.43;56.60
63321;BME280;49449;48.800;9.534;2023-11-19T08:31:08;98394.06;;;9.38;56.86
63321;BME280;49449;48.800;9.534;2023-11-19T08:33:36;98391.50;;;9.31;56.86
63321;BME280;49449;48.800;9.534;2023-11-19T08:36:04;98393.44;;;9.54;56.52
63321;BME280;49449;48.800;9.534;2023-11-19T08:38:32;98392.28;;;9.50;56.47
63321;BME280;49449;48.800;9.534;2023-11-19T08:41:00;98395.75;;;9.32;56.83
63321;BME280;49449;48.800;9.534;2023-11-19T08:43:28;98396.09;;;9.96;55.38
63321;BME280;49449;48.800;9.534;2023-11-19T08:45:58;98395.91;;;10.33;53.97
63321;BME280;49449;48.800;9.534;2023-11-19T08:48:26;98382.94;;;9.66;56.02
63321;BME280;49449;48.800;9.534;2023-11-19T08:50:54;98395.22;;;9.42;56.10
63321;BME280;49449;48.800;9.534;2023-11-19T08:53:22;98394.47;;;9.04;57.59
63321;BME280;49449;48.800;9.534;2023-11-19T08:55:49;98396.81;;;8.94;58.05
63321;BME280;49449;48.800;9.534;2023-11-19T08:58:17;98380.03;;;9.07;57.50
63321;BME280;49449;48.800;9.534;2023-11-19T09:00:45;98389.63;;;9.01;57.61
63321;BME280;49449;48.800;9.534;2023-11-19T09:03:14;98401.28;;;8.94;58.08
63321;BME280;49449;48.800;9.534;2023-11-19T09:05:42;98418.09;;;8.92;57.73
63321;BME280;49449;48.800;9.534;2023-11-19T09:08:10;98417.97;;;9.06;57.83
63321;BME280;49449;48.800;9.534;2023-11-19T09:10:38;98425.78;;;9.31;56.95
63321;BME280;49449;48.800;9.534;2023-11-19T09:13:06;98422.81;;;9.39;56.51
63321;BME280;49449;48.800;9.534;2023-11-19T09:15:34;98420.25;;;9.51;56.17
63321;BME280;49449;48.800;9.534;2023-11-19T09:18:02;98432.00;;;9.37;56.57
63321;BME280;49449;48.800;9.534;2023-11-19T09:20:32;98419.59;;;9.37;56.73
63321;BME280;49449;48.800;9.534;2023-11-19T09:23:04;98424.03;;;9.55;56.14
63321;BME280;49449;48.800;9.534;2023-11-19T09:25:32;98433.94;;;10.91;52.20
63321;BME280;49449;48.800;9.534;2023-11-19T09:28:03;98431.97;;;10.75;52.88
63321;BME280;49449;48.800;9.534;2023-11-19T09:30:31;98436.56;;;9.90;54.85
63321;BME280;49449;48.800;9.534;2023-11-19T09:33:00;98439.56;;;9.63;55.61
63321;BME280;49449;48.800;9.534;2023-11-19T09:35:28;98439.63;;;9.75;55.27
63321;BME280;49449;48.800;9.534;2023-11-19T09:37:57;98436.84;;;9.70;55.54
63321;BME280;49449;48.800;9.534;2023-11-19T09:40:25;98433.06;;;9.96;54.91
63321;BME280;49449;48.800;9.534;2023-11-19T09:42:55;98434.28;;;9.94;54.82
63321;BME280;49449;48.800;9.534;2023-11-19T09:45:26;98431.66;;;9.94;54.71
63321;BME280;49449;48.800;9.534;2023-11-19T09:47:55;98434.56;;;10.04;54.85
63321;BME280;49449;48.800;9.534;2023-11-19T09:50:24;98432.44;;;9.64;55.99
63321;BME280;49449;48.800;9.534;2023-11-19T09:52:52;98441.25;;;9.58;55.73
63321;BME280;49449;48.800;9.534;2023-11-19T09:55:22;98442.09;;;9.40;56.79
63321;BME280;49449;48.800;9.534;2023-11-19T09:57:52;98436.97;;;9.75;55.67
63321;BME280;49449;48.800;9.534;2023-11-19T10:00:21;98427.22;;;9.76;55.47
63321;BME280;49449;48.800;9.534;2023-11-19T10:02:49;98428.03;;;10.18;54.47
63321;BME280;49449;48.800;9.534;2023-11-19T10:05:19;98421.75;;;10.43;53.91
63321;BME280;49449;48.800;9.534;2023-11-19T10:07:48;98423.25;;;10.39;54.26
63321;BME280;49449;48.800;9.534;2023-11-19T10:10:16;98429.28;;;10.04;54.91
63321;BME280;49449;48.800;9.534;2023-11-19T10:12:46;98412.19;;;10.18;54.56
63321;BME280;49449;48.800;9.534;2023-11-19T10:15:20;98422.66;;;10.37;54.37
63321;BME280;49449;48.800;9.534;2023-11-19T10:17:49;98420.03;;;10.37;54.30
63321;BME280;49449;48.800;9.534;2023-11-19T10:20:17;98432.53;;;10.53;53.50
63321;BME280;49449;48.800;9.534;2023-11-19T10:22:44;98430.81;;;10.59;53.89
63321;BME280;49449;48.800;9.534;2023-11-19T10:25:23;98416.16;;;11.27;52.27
63321;BME280;49449;48.800;9.534;2023-11-19T10:27:52;98413.50;;;11.27;51.89
63321;BME280;49449;48.800;9.534;2023-11-19T10:30:21;98422.06;;;11.46;51.41
63321;BME280;49449;48.800;9.534;2023-11-19T10:33:05;98424.44;;;11.19;51.97
63321;BME280;49449;48.800;9.534;2023-11-19T10:35:34;98425.09;;;11.38;51.56
63321;BME280;49449;48.800;9.534;2023-11-19T10:38:13;98409.69;;;10.83;52.66
63321;BME280;49449;48.800;9.534;2023-11-19T10:40:41;98399.66;;;11.37;51.80
63321;BME280;49449;48.800;9.534;2023-11-19T10:43:11;98420.56;;;11.10;51.95
63321;BME280;49449;48.800;9.534;2023-11-19T10:45:39;98414.47;;;11.09;52.48
63321;BME280;49449;48.800;9.534;2023-11-19T10:48:07;98407.16;;;10.64;52.95
63321;BME280;49449;48.800;9.534;2023-11-19T10:50:35;98416.47;;;10.55;53.12
63321;BME280;49449;48.800;9.534;2023-11-19T10:53:04;98409.00;;;10.87;52.64
63321;BME280;49449;48.800;9.534;2023-11-19T10:55:33;98410.72;;;10.93;52.20
63321;BME280;49449;48.800;9.534;2023-11-19T10:58:03;98414.28;;;10.87;52.23
63321;BME280;49449;48.800;9.534;2023-11-19T11:00:38;98405.94;;;11.19;51.49
63321;BME280;49449;48.800;9.534;2023-11-19T11:03:10;98391.25;;;11.11;52.08
63321;BME280;49449;48.800;9.534;2023-11-19T11:05:42;98392.56;;;11.54;51.18
63321;BME280;49449;48.800;9.534;2023-11-19T11:08:10;98395.13;;;11.21;52.02
63321;BME280;49449;48.800;9.534;2023-11-19T11:10:42;98386.56;;;11.02;52.59
63321;BME280;49449;48.800;9.534;2023-11-19T11:13:14;98388.59;;;11.23;52.33
63321;BME280;49449;48.800;9.534;2023-11-19T11:15:45;98383.88;;;11.13;52.13
63321;BME280;49449;48.800;9.534;2023-11-19T11:18:14;98382.84;;;11.43;51.60
63321;BME280;49449;48.800;9.534;2023-11-19T11:20:44;98388.63;;;11.40;51.63
63321;BME280;49449;48.800;9.534;2023-11-19T11:23:41;98390.59;;;11.62;51.18
63321;BME280;49449;48.800;9.534;2023-11-19T11:26:35;98376.94;;;11.82;50.71
63321;BME280;49449;48.800;9.534;2023-11-19T11:29:15;98375.75;;;12.06;50.26
63321;BME280;49449;48.800;9.534;2023-11-19T11:31:53;98371.00;;;12.25;49.50
63321;BME280;49449;48.800;9.534;2023-11-19T11:34:45;98377.50;;;12.35;49.47
63321;BME280;49449;48.800;9.534;2023-11-19T11:37:19;98375.56;;;12.47;49.12
63321;BME280;49449;48.800;9.534;2023-11-19T11:39:50;98387.75;;;12.48;49.35
63321;BME280;49449;48.800;9.534;2023-11-19T11:42:34;98381.31;;;12.61;48.86
63321;BME280;49449;48.800;9.534;2023-11-19T11:45:02;98385.47;;;12.57;49.30
63321;BME280;49449;48.800;9.534;2023-11-19T11:48:10;98382.19;;;12.66;48.91
63321;BME280;49449;48.800;9.534;2023-11-19T11:50:49;98385.84;;;12.82;48.98
63321;BME280;49449;48.800;9.534;2023-11-19T11:53:18;98384.94;;;12.94;48.73
63321;BME280;49449;48.800;9.534;2023-11-19T11:55:54;98383.91;;;12.95;48.96
63321;BME280;49449;48.800;9.534;2023-11-19T11:58:26;98388.19;;;13.01;48.99
63321;BME280;49449;48.800;9.534;2023-11-19T12:00:54;98369.69;;;13.06;48.79
63321;BME280;49449;48.800;9.534;2023-11-19T12:03:28;98363.78;;;12.99;48.77
63321;BME280;49449;48.800;9.534;2023-11-19T12:05:57;98359.78;;;12.96;47.85
63321;BME280;49449;48.800;9.534;2023-11-19T12:08:27;98369.50;;;12.91;47.34
63321;BME280;49449;48.800;9.534;2023-11-19T12:10:56;98361.31;;;12.92;46.76
63321;BME280;49449;48.800;9.534;2023-11-19T12:13:44;98357.91;;;12.75;46.89
63321;BME280;49449;48.800;9.534;2023-11-19T12:16:13;98359.28;;;12.77;46.76
63321;BME280;49449;48.800;9.534;2023-11-19T12:18:43;98342.84;;;12.58;45.97
63321;BME280;49449;48.800;9.534;2023-11-19T12:21:11;98346.72;;;12.89;45.47
63321;BME280;49449;48.800;9.534;2023-11-19T12:23:46;98338.66;;;13.06;44.88
63321;BME280;49449;48.800;9.534;2023-11-19T12:26:36;98334.00;;;13.14;43.31
63321;BME280;49449;48.800;9.534;2023-11-19T12:29:05;98335.75;;;13.30;43.43
63321;BME280;49449;48.800;9.534;2023-11-19T12:31:34;98322.94;;;13.49;43.82
63321;BME280;49449;48.800;9.534;2023-11-19T12:34:07;98315.94;;;13.65;42.41
63321;BME280;49449;48.800;9.534;2023-11-19T12:36:39;98320.03;;;13.83;43.21
63321;BME280;49449;48.800;9.534;2023-11-19T12:39:08;98312.53;;;14.07;42.42
63321;BME280;49449;48.800;9.534;2023-11-19T12:41:50;98308.03;;;14.13;42.14
63321;BME280;49449;48.800;9.534;2023-11-19T12:44:19;98313.19;;;14.35;42.13
63321;BME280;49449;48.800;9.534;2023-11-19T12:46:46;98302.97;;;14.54;41.15
63321;BME280;49449;48.800;9.534;2023-11-19T12:49:27;98299.91;;;14.35;40.20
63321;BME280;49449;48.800;9.534;2023-11-19T12:51:55;98290.59;;;13.57;40.63
63321;BME280;49449;48.800;9.534;2023-11-19T12:54:32;98298.31;;;13.59;40.45
63321;BME280;49449;48.800;9.534;2023-11-19T12:57:00;98278.38;;;13.24;40.79
63321;BME280;49449;48.800;9.534;2023-11-19T12:59:28;98295.22;;;13.40;40.17
63321;BME280;49449;48.800;9.534;2023-11-19T13:01:57;98283.31;;;13.15;40.84
63321;BME280;49449;48.800;9.534;2023-11-19T13:04:29;98278.66;;;13.55;40.57
63321;BME280;49449;48.800;9.534;2023-11-19T13:06:58;98285.41;;;13.68;40.13
63321;BME280;49449;48.800;9.534;2023-11-19T13:09:29;98293.53;;;13.61;39.04
63321;BME280;49449;48.800;9.534;2023-11-19T13:11:57;98289.09;;;13.07;40.14
63321;BME280;49449;48.800;9.534;2023-11-19T13:14:36;98283.28;;;13.10;39.82
63321;BME280;49449;48.800;9.534;2023-11-19T13:17:04;98287.50;;;13.33;39.61
63321;BME280;49449;48.800;9.534;2023-11-19T13:19:34;98288.19;;;13.23;39.33